createdAt,value
2022-11-28T00:01:43.423Z,100.00
2022-11-28T00:04:12.975Z,100.00
2022-11-28T00:06:46.031Z,100.00
2022-11-28T00:09:15.428Z,100.00
2022-11-28T00:11:46.885Z,100.00
2022-11-28T00:14:17.879Z,100.00
2022-11-28T00:16:47.082Z,100.00
2022-11-28T00:19:16.173Z,100.00
2022-11-28T00:21:44.809Z,100.00
2022-11-28T00:24:13.346Z,100.00
2022-11-28T00:26:42.419Z,100.00
2022-11-28T00:29:11.772Z,100.00
2022-11-28T00:31:44.899Z,100.00
2022-11-28T00:34:15.495Z,100.00
2022-11-28T00:36:46.604Z,100.00
2022-11-28T00:39:17.006Z,100.00
2022-11-28T00:41:45.807Z,100.00
2022-11-28T00:44:14.493Z,100.00
2022-11-28T00:46:43.361Z,100.00
2022-11-28T00:49:12.064Z,100.00
2022-11-28T00:51:40.729Z,100.00
2022-11-28T00:54:10.609Z,100.00
2022-11-28T00:56:40.831Z,100.00
2022-11-28T00:59:09.477Z,100.00
2022-11-28T01:01:43.923Z,100.00
2022-11-28T01:04:16.288Z,100.00
2022-11-28T01:06:50.790Z,100.00
2022-11-28T01:09:22.903Z,100.00
2022-11-28T01:11:53.836Z,100.00
2022-11-28T01:14:25.807Z,100.00
2022-11-28T01:16:54.391Z,100.00
2022-11-28T01:19:22.936Z,100.00
2022-11-28T01:21:51.541Z,100.00
2022-11-28T01:24:20.101Z,100.00
2022-11-28T01:26:48.699Z,100.00
2022-11-28T01:29:17.212Z,100.00
2022-11-28T01:31:45.835Z,100.00
2022-11-28T01:34:14.546Z,100.00
2022-11-28T01:36:43.081Z,100.00
2022-11-28T01:39:12.353Z,100.00
2022-11-28T01:41:41.070Z,100.00
2022-11-28T01:44:15.794Z,100.00
2022-11-28T01:46:44.537Z,100.00
2022-11-28T01:49:19.089Z,100.00
2022-11-28T01:51:52.712Z,100.00
2022-11-28T01:54:25.580Z,100.00
2022-11-28T01:57:02.220Z,100.00
2022-11-28T01:59:35.862Z,100.00
2022-11-28T02:02:13.329Z,100.00
2022-11-28T02:04:42.834Z,100.00
2022-11-28T02:07:11.773Z,100.00
2022-11-28T02:09:40.397Z,100.00
2022-11-28T02:12:20.718Z,100.00
2022-11-28T02:15:46.609Z,100.00
2022-11-28T02:18:26.934Z,100.00
2022-11-28T02:21:25.039Z,100.00
2022-11-28T02:24:25.578Z,100.00
2022-11-28T02:27:27.791Z,100.00
2022-11-28T02:30:11.717Z,100.00
2022-11-28T02:32:55.584Z,100.00
2022-11-28T02:35:35.646Z,100.00
2022-11-28T02:38:23.241Z,100.00
2022-11-28T02:41:18.991Z,100.00
2022-11-28T02:44:11.732Z,100.00
2022-11-28T02:47:02.829Z,100.00
2022-11-28T02:49:49.608Z,100.00
2022-11-28T02:52:37.930Z,100.00
2022-11-28T02:55:08.478Z,100.00
2022-11-28T02:57:47.685Z,100.00
2022-11-28T03:00:32.558Z,100.00
2022-11-28T03:03:19.422Z,100.00
2022-11-28T03:06:23.121Z,100.00
2022-11-28T03:09:16.949Z,100.00
2022-11-28T03:12:04.577Z,100.00
2022-11-28T03:15:01.940Z,100.00
2022-11-28T03:17:52.078Z,100.00
2022-11-28T03:20:34.524Z,100.00
2022-11-28T03:23:23.548Z,100.00
2022-11-28T03:26:12.089Z,100.00
2022-11-28T03:28:51.998Z,100.00
2022-11-28T03:31:31.933Z,100.00
2022-11-28T03:34:02.292Z,100.00
2022-11-28T03:36:47.560Z,100.00
2022-11-28T03:39:22.140Z,100.00
2022-11-28T03:42:16.789Z,100.00
2022-11-28T03:45:06.600Z,100.00
2022-11-28T03:47:42.289Z,100.00
2022-11-28T03:50:25.889Z,100.00
2022-11-28T03:53:03.175Z,100.00
2022-11-28T03:55:34.284Z,100.00
2022-11-28T03:58:49.755Z,100.00
2022-11-28T04:01:48.066Z,100.00
2022-11-28T04:04:29.318Z,100.00
2022-11-28T04:07:43.505Z,100.00
2022-11-28T04:10:31.919Z,100.00
2022-11-28T04:13:23.964Z,100.00
2022-11-28T04:16:04.557Z,100.00
2022-11-28T04:19:09.684Z,100.00
2022-11-28T04:22:00.228Z,100.00
2022-11-28T04:24:42.343Z,100.00
2022-11-28T04:27:16.641Z,100.00
2022-11-28T04:29:50.001Z,100.00
2022-11-28T04:32:19.649Z,100.00
2022-11-28T04:34:55.398Z,100.00
2022-11-28T04:37:28.042Z,100.00
2022-11-28T04:39:57.059Z,100.00
2022-11-28T04:42:53.261Z,100.00
2022-11-28T04:45:30.413Z,100.00
2022-11-28T04:47:59.308Z,100.00
2022-11-28T04:51:01.698Z,100.00
2022-11-28T04:53:37.902Z,100.00
2022-11-28T04:56:20.730Z,100.00
2022-11-28T04:58:51.249Z,100.00
2022-11-28T05:01:27.295Z,100.00
2022-11-28T05:03:56.574Z,100.00
2022-11-28T05:06:32.478Z,100.00
2022-11-28T05:09:01.170Z,100.00
2022-11-28T05:11:29.934Z,100.00
2022-11-28T05:13:58.485Z,100.00
2022-11-28T05:16:27.196Z,100.00
2022-11-28T05:18:55.879Z,100.00
2022-11-28T05:21:24.623Z,100.00
2022-11-28T05:23:53.952Z,100.00
2022-11-28T05:26:22.619Z,100.00
2022-11-28T05:28:52.859Z,100.00
2022-11-28T05:31:22.032Z,100.00
2022-11-28T05:33:50.971Z,100.00
2022-11-28T05:36:19.481Z,100.00
2022-11-28T05:38:48.749Z,100.00
2022-11-28T05:41:24.393Z,100.00
2022-11-28T05:43:53.299Z,100.00
2022-11-28T05:46:22.109Z,100.00
2022-11-28T05:48:50.709Z,100.00
2022-11-28T05:51:19.936Z,100.00
2022-11-28T05:53:48.561Z,100.00
2022-11-28T05:56:23.097Z,100.00
2022-11-28T05:58:54.296Z,100.00
2022-11-28T06:01:28.557Z,100.00
2022-11-28T06:04:01.176Z,100.00
2022-11-28T06:06:33.600Z,100.00
2022-11-28T06:09:02.904Z,100.00
2022-11-28T06:11:33.187Z,100.00
2022-11-28T06:14:03.199Z,100.00
2022-11-28T06:16:32.858Z,100.00
2022-11-28T06:19:05.406Z,100.00
2022-11-28T06:21:34.350Z,100.00
2022-11-28T06:24:03.017Z,100.00
2022-11-28T06:26:31.598Z,100.00
2022-11-28T06:29:00.100Z,100.00
2022-11-28T06:31:30.412Z,100.00
2022-11-28T06:33:59.497Z,100.00
2022-11-28T06:36:30.876Z,100.00
2022-11-28T06:38:59.521Z,100.00
2022-11-28T06:41:28.030Z,100.00
2022-11-28T06:43:57.176Z,100.00
2022-11-28T06:46:25.893Z,100.00
2022-11-28T06:48:54.550Z,100.00
2022-11-28T06:51:23.194Z,100.00
2022-11-28T06:53:51.816Z,100.00
2022-11-28T06:56:20.839Z,100.00
2022-11-28T06:58:58.164Z,100.00
2022-11-28T07:01:31.434Z,100.00
2022-11-28T07:04:01.052Z,100.00
2022-11-28T07:06:29.842Z,100.00
2022-11-28T07:08:59.614Z,100.00
2022-11-28T07:11:31.499Z,100.00
2022-11-28T07:14:02.755Z,100.00
2022-11-28T07:16:33.553Z,100.00
2022-11-28T07:19:02.993Z,100.00
2022-11-28T07:21:32.657Z,100.00
2022-11-28T07:24:01.234Z,100.00
2022-11-28T07:26:30.846Z,100.00
2022-11-28T07:29:00.129Z,100.00
2022-11-28T07:31:32.356Z,100.00
2022-11-28T07:34:03.723Z,100.00
2022-11-28T07:36:32.786Z,100.00
2022-11-28T07:39:05.048Z,100.00
2022-11-28T07:41:33.626Z,100.00
2022-11-28T07:44:04.096Z,100.00
2022-11-28T07:46:34.334Z,100.00
2022-11-28T07:49:04.214Z,100.00
2022-11-28T07:51:34.173Z,100.00
2022-11-28T07:54:05.118Z,100.00
2022-11-28T07:57:10.831Z,100.00
2022-11-28T07:59:26.323Z,100.00
2022-11-28T08:01:55.003Z,100.00
2022-11-28T08:04:23.819Z,100.00
2022-11-28T08:06:52.441Z,100.00
2022-11-28T08:09:20.953Z,100.00
2022-11-28T08:11:51.373Z,100.00
2022-11-28T08:14:20.444Z,100.00
2022-11-28T08:16:49.660Z,100.00
2022-11-28T08:19:22.965Z,100.00
2022-11-28T08:21:53.478Z,100.00
2022-11-28T08:24:22.275Z,100.00
2022-11-28T08:26:50.762Z,100.00
2022-11-28T08:29:19.355Z,100.00
2022-11-28T08:31:47.842Z,100.00
2022-11-28T08:34:16.388Z,100.00
2022-11-28T08:36:45.054Z,100.00
2022-11-28T08:39:28.801Z,100.00
2022-11-28T08:41:58.945Z,100.00
2022-11-28T08:44:30.358Z,100.00
2022-11-28T08:46:59.182Z,100.00
2022-11-28T08:49:27.698Z,100.00
2022-11-28T08:51:56.248Z,100.00
2022-11-28T08:54:24.821Z,100.00
2022-11-28T08:56:53.401Z,100.00
2022-11-28T08:59:22.041Z,100.00
2022-11-28T09:01:54.000Z,100.00
2022-11-28T09:04:24.010Z,100.00
2022-11-28T09:06:52.764Z,100.00
2022-11-28T09:09:21.951Z,100.00
2022-11-28T09:11:50.569Z,100.00
2022-11-28T09:14:19.132Z,100.00
2022-11-28T09:16:48.535Z,100.00
2022-11-28T09:19:17.111Z,100.00
2022-11-28T09:21:49.314Z,100.00
2022-11-28T09:24:19.437Z,100.00
2022-11-28T09:26:48.108Z,100.00
2022-11-28T09:29:16.659Z,100.00
2022-11-28T09:31:47.502Z,100.00
2022-11-28T09:34:16.563Z,100.00
2022-11-28T09:36:45.127Z,100.00
2022-11-28T09:39:13.676Z,100.00
2022-11-28T09:42:10.723Z,100.00
2022-11-28T09:45:10.228Z,100.00
2022-11-28T09:47:43.384Z,100.00
2022-11-28T09:50:36.287Z,100.00
2022-11-28T09:53:37.563Z,100.00
2022-11-28T09:56:14.582Z,100.00
2022-11-28T09:58:50.043Z,100.00
2022-11-28T10:01:18.459Z,100.00
2022-11-28T10:04:21.105Z,100.00
2022-11-28T10:07:06.985Z,100.00
2022-11-28T10:10:00.152Z,100.00
2022-11-28T10:13:05.105Z,100.00
2022-11-28T10:15:48.855Z,100.00
2022-11-28T10:18:56.499Z,100.00
2022-11-28T10:21:37.455Z,100.00
2022-11-28T10:24:35.341Z,100.00
2022-11-28T10:27:06.144Z,100.00
2022-11-28T10:29:50.643Z,100.00
2022-11-28T10:32:34.952Z,100.00
2022-11-28T10:35:33.337Z,100.00
2022-11-28T10:38:02.274Z,100.00
2022-11-28T10:41:02.990Z,100.00
2022-11-28T10:44:02.898Z,100.00
2022-11-28T10:47:10.285Z,100.00
2022-11-28T10:50:06.753Z,100.00
2022-11-28T10:52:50.327Z,100.00
2022-11-28T10:55:53.254Z,99.79
2022-11-28T10:58:31.112Z,99.52
2022-11-28T11:01:00.464Z,99.42
2022-11-28T11:03:34.149Z,98.50
2022-11-28T11:06:03.087Z,98.24
2022-11-28T11:08:40.358Z,97.53
2022-11-28T11:11:27.835Z,96.60
2022-11-28T11:14:08.928Z,95.88
2022-11-28T11:16:49.290Z,95.15
2022-11-28T11:19:32.553Z,94.26
2022-11-28T11:22:12.830Z,93.98
2022-11-28T11:24:41.450Z,93.04
2022-11-28T11:27:22.909Z,93.24
2022-11-28T11:29:52.230Z,93.29
2022-11-28T11:32:29.640Z,93.40
2022-11-28T11:34:59.370Z,92.95
2022-11-28T11:37:37.598Z,93.02
2022-11-28T11:40:41.620Z,92.91
2022-11-28T11:43:31.926Z,92.87
2022-11-28T11:46:11.928Z,92.82
2022-11-28T11:48:43.948Z,92.66
2022-11-28T11:51:28.029Z,92.73
2022-11-28T11:54:19.363Z,93.00
2022-11-28T11:57:00.703Z,93.01
2022-11-28T11:59:46.004Z,92.86
2022-11-28T12:02:41.264Z,92.54
2022-11-28T12:05:16.528Z,92.62
2022-11-28T12:08:11.568Z,92.87
2022-11-28T12:10:51.599Z,92.57
2022-11-28T12:13:23.967Z,92.27
2022-11-28T12:16:31.020Z,92.14
2022-11-28T12:19:30.388Z,92.30
2022-11-28T12:22:14.492Z,92.12
2022-11-28T12:25:36.818Z,92.03
2022-11-28T12:28:37.767Z,92.19
2022-11-28T12:31:17.568Z,92.21
2022-11-28T12:34:21.597Z,92.29
2022-11-28T12:36:56.725Z,92.52
2022-11-28T12:39:56.873Z,92.48
2022-11-28T12:42:43.855Z,92.63
2022-11-28T12:45:28.748Z,92.82
2022-11-28T12:49:08.096Z,92.94
2022-11-28T12:51:52.185Z,93.13
2022-11-28T12:55:01.825Z,93.22
2022-11-28T12:58:11.502Z,93.31
2022-11-28T13:01:24.968Z,93.33
2022-11-28T13:04:11.479Z,93.20
2022-11-28T13:07:37.006Z,93.33
2022-11-28T13:10:27.886Z,93.50
2022-11-28T13:13:19.564Z,93.49
2022-11-28T13:16:29.171Z,93.46
2022-11-28T13:19:47.390Z,93.58
2022-11-28T13:22:24.568Z,93.78
2022-11-28T13:25:28.837Z,93.79
2022-11-28T13:28:18.294Z,93.73
2022-11-28T13:31:04.564Z,93.76
2022-11-28T13:34:00.492Z,93.74
2022-11-28T13:39:55.112Z,93.95
2022-11-28T13:43:02.503Z,93.94
2022-11-28T13:51:36.034Z,94.08
2022-11-28T13:54:22.907Z,94.20
2022-11-28T13:57:12.844Z,94.09
2022-11-28T13:59:48.655Z,94.32
2022-11-28T14:02:41.936Z,94.16
2022-11-28T14:05:29.077Z,94.35
2022-11-28T14:07:58.415Z,94.37
2022-11-28T14:11:08.557Z,94.40
2022-11-28T14:13:54.452Z,94.34
2022-11-28T14:17:05.005Z,94.41
2022-11-28T14:19:57.990Z,94.45
2022-11-28T14:22:55.335Z,94.44
2022-11-28T14:25:31.732Z,94.73
2022-11-28T14:28:07.203Z,94.90
2022-11-28T14:30:41.396Z,94.99
2022-11-28T14:33:40.060Z,94.96
2022-11-28T14:36:41.923Z,95.04
2022-11-28T14:39:13.623Z,95.03
2022-11-28T14:42:06.898Z,95.09
2022-11-28T14:44:57.266Z,95.07
2022-11-28T14:47:35.145Z,95.08
2022-11-28T14:50:09.918Z,94.90
2022-11-28T14:52:43.554Z,95.17
2022-11-28T14:55:12.200Z,95.14
2022-11-28T14:58:05.341Z,95.12
2022-11-28T15:00:56.379Z,95.19
2022-11-28T15:03:45.715Z,95.31
2022-11-28T15:06:22.260Z,95.32
2022-11-28T15:09:09.556Z,95.53
2022-11-28T15:12:00.369Z,95.63
2022-11-28T15:14:32.316Z,95.87
2022-11-28T15:17:05.487Z,95.58
2022-11-28T15:19:45.853Z,95.75
2022-11-28T15:22:32.646Z,96.08
2022-11-28T15:25:01.330Z,95.92
2022-11-28T15:27:30.008Z,96.23
2022-11-28T15:30:01.727Z,96.36
2022-11-28T15:32:31.977Z,96.62
2022-11-28T15:35:09.190Z,96.51
2022-11-28T15:37:53.057Z,96.53
2022-11-28T15:40:32.535Z,96.51
2022-11-28T15:43:09.387Z,96.91
2022-11-28T15:45:42.884Z,97.17
2022-11-28T15:48:52.584Z,97.06
2022-11-28T15:51:36.402Z,97.23
2022-11-28T15:54:35.596Z,97.53
2022-11-28T15:57:06.232Z,97.77
2022-11-28T15:59:35.447Z,98.12
2022-11-28T16:02:16.506Z,98.35
2022-11-28T16:04:46.969Z,98.53
2022-11-28T16:07:16.250Z,98.84
2022-11-28T16:10:17.362Z,99.02
2022-11-28T16:12:46.036Z,99.24
2022-11-28T16:15:22.640Z,99.50
2022-11-28T16:17:54.150Z,99.78
2022-11-28T16:20:37.608Z,99.90
2022-11-28T16:23:37.675Z,99.97
2022-11-28T16:26:38.550Z,100.00
2022-11-28T16:29:09.789Z,100.00
2022-11-28T16:31:39.084Z,100.00
2022-11-28T16:34:14.983Z,100.00
2022-11-28T16:36:48.465Z,100.00
2022-11-28T16:39:18.032Z,100.00
2022-11-28T16:42:06.253Z,100.00
2022-11-28T16:44:34.971Z,100.00
2022-11-28T16:47:03.734Z,100.00
2022-11-28T16:49:38.012Z,100.00
2022-11-28T16:52:21.760Z,100.00
2022-11-28T16:54:54.286Z,100.00
2022-11-28T16:57:26.553Z,100.00
2022-11-28T16:59:58.752Z,100.00
2022-11-28T17:02:27.466Z,100.00
2022-11-28T17:04:56.157Z,100.00
2022-11-28T17:07:25.441Z,100.00
2022-11-28T17:09:53.971Z,100.00
2022-11-28T17:12:34.748Z,100.00
2022-11-28T17:15:03.838Z,100.00
2022-11-28T17:17:36.559Z,100.00
2022-11-28T17:20:06.625Z,99.94
2022-11-28T17:22:41.543Z,99.72
2022-11-28T17:25:21.267Z,99.42
2022-11-28T17:27:49.828Z,99.21
2022-11-28T17:30:19.957Z,99.13
2022-11-28T17:32:48.627Z,98.86
2022-11-28T17:35:24.352Z,98.71
2022-11-28T17:37:53.059Z,98.46
2022-11-28T17:40:33.915Z,98.29
2022-11-28T17:43:03.913Z,98.16
2022-11-28T17:45:35.587Z,98.20
2022-11-28T17:48:04.380Z,98.15
2022-11-28T17:50:32.937Z,98.15
2022-11-28T17:53:01.621Z,98.23
2022-11-28T17:55:30.205Z,98.10
2022-11-28T17:57:59.310Z,98.30
2022-11-28T18:00:29.337Z,98.29
2022-11-28T18:02:57.984Z,98.12
2022-11-28T18:05:27.195Z,98.16
2022-11-28T18:07:55.826Z,98.26
2022-11-28T18:10:24.473Z,98.45
2022-11-28T18:12:53.406Z,98.35
2022-11-28T18:15:21.929Z,98.54
2022-11-28T18:17:50.497Z,98.67
2022-11-28T18:20:20.203Z,98.71
2022-11-28T18:22:48.806Z,98.92
2022-11-28T18:25:17.518Z,98.94
2022-11-28T18:27:46.096Z,98.91
2022-11-28T18:30:15.208Z,99.22
2022-11-28T18:32:43.973Z,99.24
2022-11-28T18:35:13.146Z,99.13
2022-11-28T18:37:41.726Z,99.24
2022-11-28T18:40:10.744Z,99.17
2022-11-28T18:42:40.160Z,99.00
2022-11-28T18:45:11.258Z,98.87
2022-11-28T18:47:39.891Z,98.81
2022-11-28T18:50:09.153Z,98.63
2022-11-28T18:52:37.769Z,98.56
2022-11-28T18:55:07.287Z,98.28
2022-11-28T18:57:37.078Z,98.20
2022-11-28T19:00:06.872Z,98.22
2022-11-28T19:02:35.511Z,98.02
2022-11-28T19:05:04.605Z,98.04
2022-11-28T19:07:33.329Z,98.12
2022-11-28T19:10:01.934Z,97.92
2022-11-28T19:12:30.616Z,98.16
2022-11-28T19:15:02.473Z,97.95
2022-11-28T19:17:31.384Z,98.03
2022-11-28T19:19:59.959Z,97.88
2022-11-28T19:22:28.559Z,98.03
2022-11-28T19:24:57.167Z,98.20
2022-11-28T19:27:25.890Z,97.97
2022-11-28T19:29:54.402Z,98.06
2022-11-28T19:32:22.946Z,97.95
2022-11-28T19:34:53.592Z,98.03
2022-11-28T19:37:22.184Z,98.15
2022-11-28T19:39:50.733Z,98.10
2022-11-28T19:42:19.371Z,98.31
2022-11-28T19:44:47.893Z,98.50
2022-11-28T19:47:16.483Z,98.73
2022-11-28T19:49:45.425Z,98.71
2022-11-28T19:52:14.233Z,99.04
2022-11-28T19:54:42.845Z,98.88
2022-11-28T19:57:11.557Z,98.92
2022-11-28T19:59:40.256Z,98.76
2022-11-28T20:02:10.114Z,98.71
2022-11-28T20:04:38.760Z,98.81
2022-11-28T20:07:07.457Z,98.97
2022-11-28T20:09:36.055Z,99.06
2022-11-28T20:12:05.193Z,99.30
2022-11-28T20:14:33.980Z,99.50
2022-11-28T20:17:02.712Z,99.66
2022-11-28T20:19:31.453Z,99.79
2022-11-28T20:22:01.369Z,99.95
2022-11-28T20:24:30.320Z,100.00
2022-11-28T20:26:58.907Z,100.00
2022-11-28T20:29:28.084Z,100.00
2022-11-28T20:31:57.434Z,100.00
2022-11-28T20:34:26.984Z,100.00
2022-11-28T20:36:55.548Z,100.00
2022-11-28T20:39:24.161Z,100.00
2022-11-28T20:41:52.771Z,100.00
2022-11-28T20:44:21.465Z,100.00
2022-11-28T20:46:50.117Z,100.00
2022-11-28T20:49:19.382Z,100.00
2022-11-28T20:51:48.218Z,100.00
2022-11-28T20:54:17.381Z,100.00
2022-11-28T20:57:19.042Z,100.00
2022-11-28T20:59:36.069Z,100.00
2022-11-28T21:02:04.708Z,100.00
2022-11-28T21:04:33.266Z,100.00
2022-11-28T21:07:01.802Z,100.00
2022-11-28T21:09:30.273Z,100.00
2022-11-28T21:11:59.624Z,100.00
2022-11-28T21:14:29.146Z,100.00
2022-11-28T21:16:58.858Z,100.00
2022-11-28T21:19:27.552Z,100.00
2022-11-28T21:21:56.077Z,100.00
2022-11-28T21:24:24.722Z,100.00
2022-11-28T21:26:54.819Z,100.00
2022-11-28T21:29:24.797Z,100.00
2022-11-28T21:31:54.023Z,100.00
2022-11-28T21:34:23.004Z,100.00
2022-11-28T21:36:51.766Z,100.00
2022-11-28T21:39:20.939Z,100.00
2022-11-28T21:41:51.137Z,100.00
2022-11-28T21:44:20.235Z,100.00
2022-11-28T21:46:48.874Z,100.00
2022-11-28T21:49:17.917Z,100.00
2022-11-28T21:51:46.617Z,100.00
2022-11-28T21:54:15.371Z,100.00
2022-11-28T21:56:44.020Z,100.00
2022-11-28T21:59:12.584Z,100.00
2022-11-28T22:01:41.352Z,100.00
2022-11-28T22:04:10.838Z,100.00
2022-11-28T22:06:40.129Z,100.00
2022-11-28T22:09:09.967Z,100.00
2022-11-28T22:11:39.561Z,100.00
2022-11-28T22:14:08.324Z,100.00
2022-11-28T22:16:37.246Z,100.00
2022-11-28T22:19:05.864Z,100.00
2022-11-28T22:21:54.881Z,100.00
2022-11-28T22:24:24.886Z,100.00
2022-11-28T22:26:53.796Z,100.00
2022-11-28T22:29:22.501Z,100.00
2022-11-28T22:31:51.138Z,100.00
2022-11-28T22:34:19.871Z,100.00
2022-11-28T22:36:48.416Z,100.00
2022-11-28T22:39:17.009Z,100.00
2022-11-28T22:41:45.591Z,100.00
2022-11-28T22:44:14.187Z,100.00
2022-11-28T22:46:42.775Z,100.00
2022-11-28T22:49:11.568Z,100.00
2022-11-28T22:51:40.717Z,100.00
2022-11-28T22:54:12.795Z,100.00
2022-11-28T22:56:41.530Z,100.00
2022-11-28T22:59:15.737Z,100.00
2022-11-28T23:01:44.422Z,100.00
2022-11-28T23:04:12.986Z,100.00
2022-11-28T23:06:41.858Z,100.00
2022-11-28T23:09:13.627Z,100.00
2022-11-28T23:11:43.199Z,100.00
2022-11-28T23:14:15.430Z,100.00
2022-11-28T23:16:45.292Z,100.00
2022-11-28T23:19:17.718Z,100.00
2022-11-28T23:21:49.095Z,100.00
2022-11-28T23:24:22.000Z,100.00
2022-11-28T23:26:52.035Z,100.00
2022-11-28T23:29:21.376Z,100.00
2022-11-28T23:31:50.106Z,100.00
2022-11-28T23:34:18.643Z,100.00
2022-11-28T23:36:47.620Z,100.00
2022-11-28T23:39:20.475Z,100.00
2022-11-28T23:41:50.313Z,100.00
2022-11-28T23:44:19.974Z,100.00
2022-11-28T23:46:48.876Z,100.00
2022-11-28T23:49:17.495Z,100.00
2022-11-28T23:51:46.056Z,100.00
2022-11-28T23:54:14.858Z,100.00
2022-11-28T23:56:43.794Z,100.00
2022-11-28T23:59:13.122Z,100.00
